sensor_id;sensor_type;location;lat;lon;timestamp;pressure;altitude;pressure_sealevel;temperature;humidity
65659;BME280;60181;53.258;6.932;2023-01-29T00:00:52;102971.61;;;14.38;63.45
65659;BME280;60181;53.258;6.932;2023-01-29T00:04:56;102966.28;;;14.37;63.40
65659;BME280;60181;53.258;6.932;2023-01-29T00:09:00;102963.92;;;14.36;63.39
65659;BME280;60181;53.258;6.932;2023-01-29T00:13:04;102965.12;;;14.37;63.34
65659;BME280;60181;53.258;6.932;2023-01-29T00:17:08;102967.18;;;14.36;63.32
65659;BME280;60181;53.258;6.932;2023-01-29T00:21:13;102968.86;;;14.36;63.48
65659;BME280;60181;53.258;6.932;2023-01-29T00:25:16;102968.65;;;14.35;63.54
65659;BME280;60181;53.258;6.932;2023-01-29T00:29:20;102966.25;;;14.34;63.49
65659;BME280;60181;53.258;6.932;2023-01-29T00:33:24;102966.46;;;14.34;63.51
65659;BME280;60181;53.258;6.932;2023-01-29T00:37:28;102966.65;;;14.33;63.50
65659;BME280;60181;53.258;6.932;2023-01-29T00:41:32;102966.16;;;14.32;63.59
65659;BME280;60181;53.258;6.932;2023-01-29T00:45:36;102962.72;;;14.32;63.48
65659;BME280;60181;53.258;6.932;2023-01-29T00:49:40;102959.58;;;14.31;63.43
65659;BME280;60181;53.258;6.932;2023-01-29T00:53:44;102956.65;;;14.31;63.65
65659;BME280;60181;53.258;6.932;2023-01-29T00:57:48;102953.19;;;14.30;63.52
65659;BME280;60181;53.258;6.932;2023-01-29T01:01:52;102950.13;;;14.30;63.69
65659;BME280;60181;53.258;6.932;2023-01-29T01:06:03;102946.63;;;14.29;63.78
65659;BME280;60181;53.258;6.932;2023-01-29T01:10:00;102944.07;;;14.29;63.91
65659;BME280;60181;53.258;6.932;2023-01-29T01:14:04;102941.71;;;14.28;63.84
65659;BME280;60181;53.258;6.932;2023-01-29T01:18:08;102940.22;;;14.28;63.96
65659;BME280;60181;53.258;6.932;2023-01-29T01:22:12;102940.19;;;14.27;64.02
65659;BME280;60181;53.258;6.932;2023-01-29T01:26:16;102940.58;;;14.26;64.20
65659;BME280;60181;53.258;6.932;2023-01-29T01:30:20;102940.53;;;14.26;64.30
65659;BME280;60181;53.258;6.932;2023-01-29T01:34:24;102939.75;;;14.25;64.26
65659;BME280;60181;53.258;6.932;2023-01-29T01:38:28;102939.40;;;14.25;64.38
65659;BME280;60181;53.258;6.932;2023-01-29T01:42:32;102940.98;;;14.25;64.44
65659;BME280;60181;53.258;6.932;2023-01-29T01:46:36;102943.46;;;14.25;64.35
65659;BME280;60181;53.258;6.932;2023-01-29T01:54:44;102947.56;;;14.24;64.36
65659;BME280;60181;53.258;6.932;2023-01-29T01:58:52;102949.17;;;14.24;64.24
65659;BME280;60181;53.258;6.932;2023-01-29T02:02:52;102952.22;;;14.24;64.30
65659;BME280;60181;53.258;6.932;2023-01-29T02:06:56;102954.02;;;14.23;64.26
65659;BME280;60181;53.258;6.932;2023-01-29T02:11:00;102954.06;;;14.22;64.30
65659;BME280;60181;53.258;6.932;2023-01-29T02:15:05;102953.86;;;14.22;64.22
65659;BME280;60181;53.258;6.932;2023-01-29T02:19:15;102953.19;;;14.21;64.24
65659;BME280;60181;53.258;6.932;2023-01-29T02:27:19;102951.46;;;14.20;64.24
65659;BME280;60181;53.258;6.932;2023-01-29T02:31:26;102950.65;;;14.20;64.28
65659;BME280;60181;53.258;6.932;2023-01-29T02:39:32;102944.98;;;14.22;65.23
65659;BME280;60181;53.258;6.932;2023-01-29T02:47:40;102936.36;;;14.25;64.38
65659;BME280;60181;53.258;6.932;2023-01-29T02:51:42;102930.68;;;14.21;65.12
65659;BME280;60181;53.258;6.932;2023-01-29T02:55:46;102922.33;;;14.19;65.24
65659;BME280;60181;53.258;6.932;2023-01-29T03:00:10;102912.45;;;14.19;64.70
65659;BME280;60181;53.258;6.932;2023-01-29T03:03:52;102900.79;;;14.20;64.95
65659;BME280;60181;53.258;6.932;2023-01-29T03:07:58;102889.70;;;14.19;65.01
65659;BME280;60181;53.258;6.932;2023-01-29T03:12:02;102879.03;;;14.15;65.38
65659;BME280;60181;53.258;6.932;2023-01-29T03:16:14;102870.42;;;14.10;65.50
65659;BME280;60181;53.258;6.932;2023-01-29T03:20:09;102861.80;;;14.06;65.56
65659;BME280;60181;53.258;6.932;2023-01-29T03:24:12;102855.16;;;14.01;65.56
65659;BME280;60181;53.258;6.932;2023-01-29T03:28:16;102849.45;;;13.97;65.57
65659;BME280;60181;53.258;6.932;2023-01-29T03:32:20;102842.86;;;13.94;65.57
65659;BME280;60181;53.258;6.932;2023-01-29T03:44:34;102825.16;;;13.85;65.45
65659;BME280;60181;53.258;6.932;2023-01-29T03:48:37;102820.35;;;13.82;65.49
65659;BME280;60181;53.258;6.932;2023-01-29T03:52:45;102818.02;;;13.80;65.43
65659;BME280;60181;53.258;6.932;2023-01-29T04:00:55;102818.60;;;13.77;65.37
65659;BME280;60181;53.258;6.932;2023-01-29T04:04:52;102819.30;;;13.75;65.28
65659;BME280;60181;53.258;6.932;2023-01-29T04:08:58;102820.59;;;13.74;65.34
65659;BME280;60181;53.258;6.932;2023-01-29T04:13:04;102823.60;;;13.72;65.30
65659;BME280;60181;53.258;6.932;2023-01-29T04:17:08;102825.60;;;13.71;65.27
65659;BME280;60181;53.258;6.932;2023-01-29T04:21:08;102827.19;;;13.70;65.23
65659;BME280;60181;53.258;6.932;2023-01-29T04:25:13;102829.44;;;13.69;65.23
65659;BME280;60181;53.258;6.932;2023-01-29T04:37:41;102828.09;;;13.77;64.86
65659;BME280;60181;53.258;6.932;2023-01-29T04:53:48;102837.96;;;13.77;65.39
65659;BME280;60181;53.258;6.932;2023-01-29T04:57:52;102836.28;;;13.78;65.39
65659;BME280;60181;53.258;6.932;2023-01-29T05:01:48;102831.64;;;13.79;65.53
65659;BME280;60181;53.258;6.932;2023-01-29T05:05:52;102823.82;;;13.79;65.80
65659;BME280;60181;53.258;6.932;2023-01-29T05:09:56;102814.67;;;13.79;65.99
65659;BME280;60181;53.258;6.932;2023-01-29T05:14:00;102806.81;;;13.80;66.00
65659;BME280;60181;53.258;6.932;2023-01-29T05:18:04;102800.88;;;13.80;66.20
65659;BME280;60181;53.258;6.932;2023-01-29T05:22:08;102795.19;;;13.78;66.47
65659;BME280;60181;53.258;6.932;2023-01-29T05:26:12;102795.23;;;13.77;66.47
65659;BME280;60181;53.258;6.932;2023-01-29T05:30:16;102794.54;;;13.76;66.54
65659;BME280;60181;53.258;6.932;2023-01-29T05:34:20;102787.43;;;13.75;66.57
65659;BME280;60181;53.258;6.932;2023-01-29T05:38:24;102780.11;;;13.74;66.60
65659;BME280;60181;53.258;6.932;2023-01-29T05:42:28;102773.23;;;13.73;66.60
65659;BME280;60181;53.258;6.932;2023-01-29T05:46:32;102768.46;;;13.73;66.60
65659;BME280;60181;53.258;6.932;2023-01-29T05:50:36;102762.96;;;13.72;66.69
65659;BME280;60181;53.258;6.932;2023-01-29T05:54:40;102757.37;;;13.72;66.65
65659;BME280;60181;53.258;6.932;2023-01-29T05:58:44;102751.72;;;13.71;66.68
65659;BME280;60181;53.258;6.932;2023-01-29T06:02:48;102743.64;;;13.71;66.74
65659;BME280;60181;53.258;6.932;2023-01-29T06:06:52;102736.68;;;13.70;66.77
65659;BME280;60181;53.258;6.932;2023-01-29T06:10:56;102730.25;;;13.70;66.72
65659;BME280;60181;53.258;6.932;2023-01-29T06:15:00;102728.03;;;13.70;66.81
65659;BME280;60181;53.258;6.932;2023-01-29T06:19:04;102726.90;;;13.69;66.86
65659;BME280;60181;53.258;6.932;2023-01-29T06:23:08;102725.95;;;13.68;66.79
65659;BME280;60181;53.258;6.932;2023-01-29T06:27:12;102725.55;;;13.68;66.82
65659;BME280;60181;53.258;6.932;2023-01-29T06:31:16;102719.86;;;13.67;66.93
65659;BME280;60181;53.258;6.932;2023-01-29T06:35:20;102712.40;;;13.67;67.03
65659;BME280;60181;53.258;6.932;2023-01-29T06:39:24;102710.93;;;13.67;67.01
65659;BME280;60181;53.258;6.932;2023-01-29T06:43:28;102712.16;;;13.67;67.07
65659;BME280;60181;53.258;6.932;2023-01-29T06:47:32;102715.03;;;13.66;67.14
65659;BME280;60181;53.258;6.932;2023-01-29T06:51:36;102717.58;;;13.66;67.22
65659;BME280;60181;53.258;6.932;2023-01-29T06:55:40;102719.19;;;13.66;67.27
65659;BME280;60181;53.258;6.932;2023-01-29T06:59:44;102717.37;;;13.65;67.26
65659;BME280;60181;53.258;6.932;2023-01-29T07:03:48;102711.61;;;13.66;67.11
65659;BME280;60181;53.258;6.932;2023-01-29T07:07:52;102703.25;;;13.66;67.16
65659;BME280;60181;53.258;6.932;2023-01-29T07:11:56;102695.02;;;13.67;67.12
65659;BME280;60181;53.258;6.932;2023-01-29T07:16:00;102688.27;;;13.67;67.12
65659;BME280;60181;53.258;6.932;2023-01-29T07:20:04;102684.08;;;13.67;67.18
65659;BME280;60181;53.258;6.932;2023-01-29T07:24:07;102680.70;;;13.67;67.30
65659;BME280;60181;53.258;6.932;2023-01-29T07:28:11;102678.06;;;13.67;67.30
65659;BME280;60181;53.258;6.932;2023-01-29T07:32:15;102675.50;;;13.66;67.31
65659;BME280;60181;53.258;6.932;2023-01-29T07:36:19;102674.35;;;13.66;67.32
65659;BME280;60181;53.258;6.932;2023-01-29T07:40:23;102671.30;;;13.66;67.24
65659;BME280;60181;53.258;6.932;2023-01-29T07:44:27;102668.51;;;13.66;67.38
65659;BME280;60181;53.258;6.932;2023-01-29T07:48:31;102667.72;;;13.66;67.50
65659;BME280;60181;53.258;6.932;2023-01-29T07:52:35;102667.63;;;13.66;67.50
65659;BME280;60181;53.258;6.932;2023-01-29T07:56:39;102666.31;;;13.65;67.59
65659;BME280;60181;53.258;6.932;2023-01-29T08:00:43;102665.20;;;13.65;67.61
65659;BME280;60181;53.258;6.932;2023-01-29T08:04:47;102664.62;;;13.65;67.54
65659;BME280;60181;53.258;6.932;2023-01-29T08:08:51;102663.96;;;13.66;67.22
65659;BME280;60181;53.258;6.932;2023-01-29T08:12:56;102662.84;;;13.69;67.22
65659;BME280;60181;53.258;6.932;2023-01-29T08:16:59;102659.41;;;13.72;67.21
65659;BME280;60181;53.258;6.932;2023-01-29T08:21:04;102658.12;;;13.76;67.29
65659;BME280;60181;53.258;6.932;2023-01-29T08:25:08;102658.06;;;13.80;66.71
65659;BME280;60181;53.258;6.932;2023-01-29T08:29:12;102657.21;;;13.81;66.89
65659;BME280;60181;53.258;6.932;2023-01-29T08:33:15;102655.10;;;13.80;66.96
65659;BME280;60181;53.258;6.932;2023-01-29T08:37:19;102653.23;;;13.79;66.88
65659;BME280;60181;53.258;6.932;2023-01-29T08:41:23;102650.51;;;13.77;66.80
65659;BME280;60181;53.258;6.932;2023-01-29T08:45:27;102647.41;;;13.75;66.74
65659;BME280;60181;53.258;6.932;2023-01-29T08:49:31;102645.17;;;13.74;66.63
65659;BME280;60181;53.258;6.932;2023-01-29T08:53:35;102643.31;;;13.72;66.59
65659;BME280;60181;53.258;6.932;2023-01-29T08:57:39;102640.50;;;13.70;66.56
65659;BME280;60181;53.258;6.932;2023-01-29T09:01:43;102638.22;;;13.69;66.47
65659;BME280;60181;53.258;6.932;2023-01-29T09:05:47;102636.61;;;13.68;66.42
65659;BME280;60181;53.258;6.932;2023-01-29T09:09:51;102632.78;;;13.67;66.37
65659;BME280;60181;53.258;6.932;2023-01-29T09:13:55;102628.48;;;13.66;66.34
65659;BME280;60181;53.258;6.932;2023-01-29T09:18:01;102623.83;;;13.66;66.24
65659;BME280;60181;53.258;6.932;2023-01-29T09:22:03;102619.96;;;13.65;66.15
65659;BME280;60181;53.258;6.932;2023-01-29T09:26:07;102617.77;;;13.65;66.13
65659;BME280;60181;53.258;6.932;2023-01-29T09:30:12;102616.56;;;13.65;65.99
65659;BME280;60181;53.258;6.932;2023-01-29T09:34:15;102615.47;;;13.66;65.81
65659;BME280;60181;53.258;6.932;2023-01-29T09:38:19;102615.11;;;13.67;65.74
65659;BME280;60181;53.258;6.932;2023-01-29T09:42:25;102612.89;;;13.68;65.69
65659;BME280;60181;53.258;6.932;2023-01-29T09:46:39;102612.04;;;13.69;65.76
65659;BME280;60181;53.258;6.932;2023-01-29T09:50:33;102610.25;;;13.68;65.85
65659;BME280;60181;53.258;6.932;2023-01-29T09:54:43;102609.42;;;13.66;65.97
65659;BME280;60181;53.258;6.932;2023-01-29T09:58:40;102609.69;;;13.64;65.99
65659;BME280;60181;53.258;6.932;2023-01-29T10:02:48;102607.14;;;13.65;65.52
65659;BME280;60181;53.258;6.932;2023-01-29T10:10:58;102601.16;;;13.67;65.99
65659;BME280;60181;53.258;6.932;2023-01-29T10:15:01;102597.89;;;13.66;66.04
65659;BME280;60181;53.258;6.932;2023-01-29T10:19:08;102593.40;;;13.64;66.04
65659;BME280;60181;53.258;6.932;2023-01-29T10:27:14;102589.42;;;13.62;66.07
65659;BME280;60181;53.258;6.932;2023-01-29T10:31:24;102587.40;;;13.61;66.02
65659;BME280;60181;53.258;6.932;2023-01-29T10:35:28;102583.41;;;13.60;65.94
65659;BME280;60181;53.258;6.932;2023-01-29T10:39:20;102578.22;;;13.60;65.89
65659;BME280;60181;53.258;6.932;2023-01-29T10:51:47;102558.36;;;13.60;65.80
65659;BME280;60181;53.258;6.932;2023-01-29T10:55:39;102549.06;;;13.60;65.76
65659;BME280;60181;53.258;6.932;2023-01-29T11:03:43;102531.64;;;13.59;65.84
65659;BME280;60181;53.258;6.932;2023-01-29T11:07:48;102523.99;;;13.59;65.79
65659;BME280;60181;53.258;6.932;2023-01-29T11:11:53;102515.38;;;13.58;65.73
65659;BME280;60181;53.258;6.932;2023-01-29T11:15:55;102506.81;;;13.58;65.70
65659;BME280;60181;53.258;6.932;2023-01-29T11:19:59;102499.52;;;13.58;65.61
65659;BME280;60181;53.258;6.932;2023-01-29T11:24:04;102493.69;;;13.59;65.64
65659;BME280;60181;53.258;6.932;2023-01-29T11:28:07;102489.07;;;13.59;65.66
65659;BME280;60181;53.258;6.932;2023-01-29T11:36:29;102478.63;;;13.69;64.37
65659;BME280;60181;53.258;6.932;2023-01-29T11:40:32;102474.21;;;13.73;64.78
65659;BME280;60181;53.258;6.932;2023-01-29T11:44:30;102468.26;;;13.73;65.15
65659;BME280;60181;53.258;6.932;2023-01-29T11:48:40;102463.68;;;13.72;65.34
65659;BME280;60181;53.258;6.932;2023-01-29T11:52:38;102457.92;;;13.70;65.41
65659;BME280;60181;53.258;6.932;2023-01-29T11:56:39;102452.27;;;13.69;65.43
65659;BME280;60181;53.258;6.932;2023-01-29T12:00:40;102447.83;;;13.67;65.40
65659;BME280;60181;53.258;6.932;2023-01-29T12:04:43;102443.13;;;13.66;65.38
65659;BME280;60181;53.258;6.932;2023-01-29T12:09:00;102439.05;;;13.66;65.42
65659;BME280;60181;53.258;6.932;2023-01-29T12:12:51;102434.68;;;13.65;65.40
65659;BME280;60181;53.258;6.932;2023-01-29T12:16:57;102428.00;;;13.65;65.35
65659;BME280;60181;53.258;6.932;2023-01-29T12:21:19;102420.81;;;13.65;65.37
65659;BME280;60181;53.258;6.932;2023-01-29T12:25:08;102413.27;;;13.65;65.29
65659;BME280;60181;53.258;6.932;2023-01-29T12:33:13;102398.21;;;13.66;65.35
65659;BME280;60181;53.258;6.932;2023-01-29T12:37:23;102390.30;;;13.65;65.43
65659;BME280;60181;53.258;6.932;2023-01-29T12:41:38;102380.79;;;13.65;65.40
65659;BME280;60181;53.258;6.932;2023-01-29T12:45:23;102370.48;;;13.64;65.45
65659;BME280;60181;53.258;6.932;2023-01-29T12:49:29;102361.15;;;13.64;65.42
65659;BME280;60181;53.258;6.932;2023-01-29T12:53:33;102352.59;;;13.64;65.40
65659;BME280;60181;53.258;6.932;2023-01-29T12:57:43;102344.64;;;13.64;65.36
65659;BME280;60181;53.258;6.932;2023-01-29T13:01:44;102336.16;;;13.64;65.37
65659;BME280;60181;53.258;6.932;2023-01-29T13:05:50;102327.68;;;13.65;65.42
65659;BME280;60181;53.258;6.932;2023-01-29T13:09:48;102318.87;;;13.65;65.37
65659;BME280;60181;53.258;6.932;2023-01-29T13:13:53;102310.19;;;13.65;65.36
65659;BME280;60181;53.258;6.932;2023-01-29T13:17:57;102301.70;;;13.66;65.36
65659;BME280;60181;53.258;6.932;2023-01-29T13:22:00;102293.88;;;13.66;65.35
65659;BME280;60181;53.258;6.932;2023-01-29T13:26:03;102285.77;;;13.66;65.38
65659;BME280;60181;53.258;6.932;2023-01-29T13:30:22;102278.19;;;13.66;65.41
65659;BME280;60181;53.258;6.932;2023-01-29T13:38:33;102264.40;;;13.65;65.47
65659;BME280;60181;53.258;6.932;2023-01-29T13:42:20;102257.28;;;13.65;65.45
65659;BME280;60181;53.258;6.932;2023-01-29T13:46:23;102250.36;;;13.64;65.46
65659;BME280;60181;53.258;6.932;2023-01-29T13:54:31;102240.77;;;13.63;65.50
65659;BME280;60181;53.258;6.932;2023-01-29T14:02:39;102229.61;;;13.63;65.46
65659;BME280;60181;53.258;6.932;2023-01-29T14:06:44;102224.59;;;13.62;65.47
65659;BME280;60181;53.258;6.932;2023-01-29T14:10:47;102219.89;;;13.62;65.44
65659;BME280;60181;53.258;6.932;2023-01-29T14:18:59;102209.61;;;13.62;65.44
65659;BME280;60181;53.258;6.932;2023-01-29T14:22:59;102203.77;;;13.63;65.41
65659;BME280;60181;53.258;6.932;2023-01-29T14:27:03;102197.42;;;13.63;65.41
65659;BME280;60181;53.258;6.932;2023-01-29T14:31:07;102191.04;;;13.63;65.39
65659;BME280;60181;53.258;6.932;2023-01-29T14:35:18;102183.62;;;13.63;65.42
65659;BME280;60181;53.258;6.932;2023-01-29T14:39:28;102177.12;;;13.64;65.42
65659;BME280;60181;53.258;6.932;2023-01-29T14:43:19;102172.19;;;13.64;65.44
65659;BME280;60181;53.258;6.932;2023-01-29T14:51:30;102160.33;;;13.63;65.45
65659;BME280;60181;53.258;6.932;2023-01-29T14:55:40;102154.74;;;13.63;65.47
65659;BME280;60181;53.258;6.932;2023-01-29T14:59:36;102147.61;;;13.63;65.48
65659;BME280;60181;53.258;6.932;2023-01-29T15:03:42;102142.35;;;13.63;65.47
65659;BME280;60181;53.258;6.932;2023-01-29T15:07:46;102138.55;;;13.69;64.70
65659;BME280;60181;53.258;6.932;2023-01-29T15:15:55;102132.25;;;13.73;65.26
65659;BME280;60181;53.258;6.932;2023-01-29T15:19:55;102128.83;;;13.71;65.46
65659;BME280;60181;53.258;6.932;2023-01-29T15:24:02;102126.56;;;13.70;65.53
65659;BME280;60181;53.258;6.932;2023-01-29T15:28:03;102124.22;;;13.69;65.59
65659;BME280;60181;53.258;6.932;2023-01-29T15:32:09;102120.23;;;13.67;65.59
65659;BME280;60181;53.258;6.932;2023-01-29T15:36:16;102117.22;;;13.66;65.55
65659;BME280;60181;53.258;6.932;2023-01-29T15:40:15;102113.40;;;13.66;65.53
65659;BME280;60181;53.258;6.932;2023-01-29T15:44:20;102109.52;;;13.65;65.58
65659;BME280;60181;53.258;6.932;2023-01-29T15:48:33;102105.95;;;13.65;65.58
65659;BME280;60181;53.258;6.932;2023-01-29T15:52:29;102103.31;;;13.66;65.24
65659;BME280;60181;53.258;6.932;2023-01-29T15:56:32;102102.07;;;13.69;65.13
65659;BME280;60181;53.258;6.932;2023-01-29T16:00:35;102100.92;;;13.69;65.32
65659;BME280;60181;53.258;6.932;2023-01-29T16:04:39;102099.88;;;13.70;65.36
65659;BME280;60181;53.258;6.932;2023-01-29T16:08:43;102097.05;;;13.69;65.39
65659;BME280;60181;53.258;6.932;2023-01-29T16:12:50;102093.42;;;13.69;65.40
65659;BME280;60181;53.258;6.932;2023-01-29T16:16:51;102089.76;;;13.68;65.43
65659;BME280;60181;53.258;6.932;2023-01-29T16:20:55;102085.64;;;13.67;65.42
65659;BME280;60181;53.258;6.932;2023-01-29T16:25:05;102080.35;;;13.67;65.40
65659;BME280;60181;53.258;6.932;2023-01-29T16:29:03;102073.67;;;13.67;65.39
65659;BME280;60181;53.258;6.932;2023-01-29T16:33:10;102066.09;;;13.66;65.37
65659;BME280;60181;53.258;6.932;2023-01-29T16:37:18;102060.71;;;13.66;65.35
65659;BME280;60181;53.258;6.932;2023-01-29T16:41:27;102057.25;;;13.66;65.35
65659;BME280;60181;53.258;6.932;2023-01-29T16:45:27;102050.83;;;13.66;65.33
65659;BME280;60181;53.258;6.932;2023-01-29T16:53:27;102038.75;;;13.66;65.31
65659;BME280;60181;53.258;6.932;2023-01-29T16:57:31;102032.01;;;13.67;65.29
65659;BME280;60181;53.258;6.932;2023-01-29T17:01:35;102024.84;;;13.67;65.27
65659;BME280;60181;53.258;6.932;2023-01-29T17:05:39;102017.19;;;13.67;65.27
65659;BME280;60181;53.258;6.932;2023-01-29T17:09:43;102010.22;;;13.67;65.31
65659;BME280;60181;53.258;6.932;2023-01-29T17:13:47;102002.23;;;13.68;65.30
65659;BME280;60181;53.258;6.932;2023-01-29T17:17:51;101995.40;;;13.68;65.26
65659;BME280;60181;53.258;6.932;2023-01-29T17:21:55;101989.18;;;13.69;65.24
65659;BME280;60181;53.258;6.932;2023-01-29T17:25:59;101985.07;;;13.69;65.27
65659;BME280;60181;53.258;6.932;2023-01-29T17:30:03;101982.14;;;13.70;65.29
65659;BME280;60181;53.258;6.932;2023-01-29T17:34:13;101977.78;;;13.70;65.30
65659;BME280;60181;53.258;6.932;2023-01-29T17:38:11;101973.25;;;13.70;65.30
65659;BME280;60181;53.258;6.932;2023-01-29T17:42:15;101968.72;;;13.70;65.28
65659;BME280;60181;53.258;6.932;2023-01-29T17:46:19;101960.82;;;13.70;65.32
65659;BME280;60181;53.258;6.932;2023-01-29T17:50:26;101953.08;;;13.70;65.32
65659;BME280;60181;53.258;6.932;2023-01-29T17:54:27;101945.42;;;13.70;65.33
65659;BME280;60181;53.258;6.932;2023-01-29T17:58:31;101939.00;;;13.70;65.58
65659;BME280;60181;53.258;6.932;2023-01-29T18:02:35;101932.45;;;13.72;65.12
65659;BME280;60181;53.258;6.932;2023-01-29T18:06:39;101925.51;;;13.73;65.10
65659;BME280;60181;53.258;6.932;2023-01-29T18:10:43;101918.61;;;13.73;65.28
65659;BME280;60181;53.258;6.932;2023-01-29T18:14:47;101910.75;;;13.73;65.32
65659;BME280;60181;53.258;6.932;2023-01-29T18:18:51;101897.00;;;13.72;65.36
65659;BME280;60181;53.258;6.932;2023-01-29T18:22:55;101885.27;;;13.71;65.35
65659;BME280;60181;53.258;6.932;2023-01-29T18:26:59;101875.80;;;13.71;65.35
65659;BME280;60181;53.258;6.932;2023-01-29T18:31:03;101869.12;;;13.71;65.30
65659;BME280;60181;53.258;6.932;2023-01-29T18:35:07;101864.35;;;13.71;65.29
65659;BME280;60181;53.258;6.932;2023-01-29T18:39:11;101859.50;;;13.72;65.29
65659;BME280;60181;53.258;6.932;2023-01-29T18:43:15;101855.50;;;13.72;65.31
65659;BME280;60181;53.258;6.932;2023-01-29T18:47:19;101851.62;;;13.72;65.29
65659;BME280;60181;53.258;6.932;2023-01-29T18:51:23;101847.60;;;13.72;65.32
65659;BME280;60181;53.258;6.932;2023-01-29T18:55:27;101843.06;;;13.73;65.34
65659;BME280;60181;53.258;6.932;2023-01-29T18:59:31;101839.56;;;13.73;65.32
65659;BME280;60181;53.258;6.932;2023-01-29T19:03:35;101836.84;;;13.73;65.33
65659;BME280;60181;53.258;6.932;2023-01-29T19:07:39;101832.97;;;13.73;65.35
65659;BME280;60181;53.258;6.932;2023-01-29T19:11:43;101827.12;;;13.73;65.35
65659;BME280;60181;53.258;6.932;2023-01-29T19:15:47;101821.94;;;13.73;65.36
65659;BME280;60181;53.258;6.932;2023-01-29T19:19:51;101816.50;;;13.73;65.35
65659;BME280;60181;53.258;6.932;2023-01-29T19:23:55;101811.81;;;13.74;65.36
65659;BME280;60181;53.258;6.932;2023-01-29T19:27:59;101808.01;;;13.74;65.37
65659;BME280;60181;53.258;6.932;2023-01-29T19:32:03;101803.08;;;13.74;65.37
65659;BME280;60181;53.258;6.932;2023-01-29T19:36:07;101798.97;;;13.74;65.37
65659;BME280;60181;53.258;6.932;2023-01-29T19:40:11;101795.17;;;13.74;65.34
65659;BME280;60181;53.258;6.932;2023-01-29T19:44:14;101793.03;;;13.74;65.35
65659;BME280;60181;53.258;6.932;2023-01-29T19:48:19;101792.88;;;13.74;65.35
65659;BME280;60181;53.258;6.932;2023-01-29T19:52:22;101791.55;;;13.74;65.36
65659;BME280;60181;53.258;6.932;2023-01-29T19:56:26;101787.27;;;13.74;65.35
65659;BME280;60181;53.258;6.932;2023-01-29T20:00:30;101781.84;;;13.74;65.36
65659;BME280;60181;53.258;6.932;2023-01-29T20:04:34;101772.28;;;13.74;65.36
65659;BME280;60181;53.258;6.932;2023-01-29T20:08:38;101765.78;;;13.74;65.33
65659;BME280;60181;53.258;6.932;2023-01-29T20:12:43;101762.77;;;13.74;65.33
65659;BME280;60181;53.258;6.932;2023-01-29T20:16:46;101760.13;;;13.75;65.30
65659;BME280;60181;53.258;6.932;2023-01-29T20:20:50;101752.81;;;13.75;65.34
65659;BME280;60181;53.258;6.932;2023-01-29T20:24:54;101751.03;;;13.75;65.33
65659;BME280;60181;53.258;6.932;2023-01-29T20:28:58;101751.36;;;13.76;65.28
65659;BME280;60181;53.258;6.932;2023-01-29T20:33:03;101752.62;;;13.77;65.30
65659;BME280;60181;53.258;6.932;2023-01-29T20:37:06;101748.67;;;13.77;65.34
65659;BME280;60181;53.258;6.932;2023-01-29T20:41:17;101744.97;;;13.77;65.34
65659;BME280;60181;53.258;6.932;2023-01-29T20:45:14;101742.08;;;13.77;65.34
65659;BME280;60181;53.258;6.932;2023-01-29T20:49:18;101740.72;;;13.78;65.33
65659;BME280;60181;53.258;6.932;2023-01-29T20:53:22;101735.83;;;13.77;65.36
65659;BME280;60181;53.258;6.932;2023-01-29T20:57:26;101735.36;;;13.78;65.35
65659;BME280;60181;53.258;6.932;2023-01-29T21:01:30;101734.21;;;13.78;65.32
65659;BME280;60181;53.258;6.932;2023-01-29T21:05:34;101730.02;;;13.78;65.33
65659;BME280;60181;53.258;6.932;2023-01-29T21:09:38;101725.08;;;13.78;65.36
65659;BME280;60181;53.258;6.932;2023-01-29T21:13:42;101719.81;;;13.78;65.35
65659;BME280;60181;53.258;6.932;2023-01-29T21:17:46;101718.41;;;13.78;65.35
65659;BME280;60181;53.258;6.932;2023-01-29T21:21:50;101712.39;;;13.78;65.36
65659;BME280;60181;53.258;6.932;2023-01-29T21:26:04;101701.58;;;13.77;65.37
65659;BME280;60181;53.258;6.932;2023-01-29T21:29:58;101688.40;;;13.77;65.37
65659;BME280;60181;53.258;6.932;2023-01-29T21:34:02;101672.02;;;13.77;65.36
65659;BME280;60181;53.258;6.932;2023-01-29T21:38:06;101654.72;;;13.77;65.37
65659;BME280;60181;53.258;6.932;2023-01-29T21:42:10;101639.48;;;13.77;65.34
65659;BME280;60181;53.258;6.932;2023-01-29T21:46:14;101629.44;;;13.77;65.34
65659;BME280;60181;53.258;6.932;2023-01-29T21:50:18;101617.50;;;13.77;65.38
65659;BME280;60181;53.258;6.932;2023-01-29T21:54:22;101607.37;;;13.76;65.34
65659;BME280;60181;53.258;6.932;2023-01-29T21:58:26;101597.66;;;13.76;65.34
65659;BME280;60181;53.258;6.932;2023-01-29T22:02:30;101589.09;;;13.76;65.35
65659;BME280;60181;53.258;6.932;2023-01-29T22:06:34;101580.20;;;13.76;65.37
65659;BME280;60181;53.258;6.932;2023-01-29T22:10:38;101572.35;;;13.76;65.34
65659;BME280;60181;53.258;6.932;2023-01-29T22:14:42;101566.09;;;13.76;65.34
65659;BME280;60181;53.258;6.932;2023-01-29T22:18:47;101558.28;;;13.76;65.37
65659;BME280;60181;53.258;6.932;2023-01-29T22:22:50;101551.68;;;13.76;65.38
65659;BME280;60181;53.258;6.932;2023-01-29T22:26:54;101544.69;;;13.75;65.37
65659;BME280;60181;53.258;6.932;2023-01-29T22:30:59;101536.87;;;13.75;65.38
65659;BME280;60181;53.258;6.932;2023-01-29T22:35:02;101525.39;;;13.75;65.39
65659;BME280;60181;53.258;6.932;2023-01-29T22:39:07;101511.64;;;13.75;65.39
65659;BME280;60181;53.258;6.932;2023-01-29T22:43:10;101499.13;;;13.75;65.35
65659;BME280;60181;53.258;6.932;2023-01-29T22:47:14;101490.07;;;13.75;65.34
65659;BME280;60181;53.258;6.932;2023-01-29T22:51:18;101482.74;;;13.74;65.36
65659;BME280;60181;53.258;6.932;2023-01-29T22:55:22;101478.91;;;13.75;65.04
65659;BME280;60181;53.258;6.932;2023-01-29T22:59:26;101479.83;;;13.80;64.66